createdAt,value
2023-06-07T00:00:54.192Z,14.82
2023-06-07T00:01:54.417Z,14.81
2023-06-07T00:02:54.324Z,14.85
2023-06-07T00:03:54.215Z,14.86
2023-06-07T00:04:54.265Z,14.86
2023-06-07T00:05:54.294Z,14.86
2023-06-07T00:06:54.244Z,14.85
2023-06-07T00:07:54.094Z,14.85
2023-06-07T00:08:54.138Z,14.82
2023-06-07T00:09:54.256Z,14.78
2023-06-07T00:10:54.079Z,14.74
2023-06-07T00:11:54.379Z,14.73
2023-06-07T00:12:54.063Z,14.73
2023-06-07T00:13:54.000Z,14.68
2023-06-07T00:14:54.224Z,14.66
2023-06-07T00:15:54.063Z,14.63
2023-06-07T00:16:54.243Z,14.61
2023-06-07T00:17:54.296Z,14.59
2023-06-07T00:18:53.929Z,14.56
2023-06-07T00:19:54.001Z,14.55
2023-06-07T00:20:53.929Z,14.52
2023-06-07T00:21:54.141Z,14.49
2023-06-07T00:22:54.093Z,14.44
2023-06-07T00:23:54.026Z,14.44
2023-06-07T00:24:54.241Z,14.43
2023-06-07T00:25:53.972Z,14.43
2023-06-07T00:26:53.882Z,14.44
2023-06-07T00:27:53.912Z,14.43
2023-06-07T00:28:53.848Z,14.38
2023-06-07T00:29:53.803Z,14.38
2023-06-07T00:30:54.103Z,14.37
2023-06-07T00:31:53.960Z,14.36
2023-06-07T00:32:54.280Z,14.31
2023-06-07T00:33:54.418Z,14.30
2023-06-07T00:34:53.841Z,14.30
2023-06-07T00:35:53.896Z,14.26
2023-06-07T00:36:53.901Z,14.23
2023-06-07T00:37:53.679Z,14.26
2023-06-07T00:38:53.677Z,14.23
2023-06-07T00:39:53.807Z,14.22
2023-06-07T00:40:53.832Z,14.19
2023-06-07T00:41:53.617Z,14.18
2023-06-07T00:42:53.786Z,14.16
2023-06-07T00:43:53.640Z,14.16
2023-06-07T00:44:53.889Z,14.16
2023-06-07T00:45:53.598Z,14.18
2023-06-07T00:46:53.614Z,14.15
2023-06-07T00:47:53.803Z,14.12
2023-06-07T00:48:53.889Z,14.12
2023-06-07T00:49:53.646Z,14.08
2023-06-07T00:50:53.502Z,14.08
2023-06-07T00:51:53.623Z,14.11
2023-06-07T00:52:53.458Z,14.07
2023-06-07T00:53:54.392Z,14.07
2023-06-07T00:54:53.546Z,14.11
2023-06-07T00:55:53.726Z,14.16
2023-06-07T00:56:53.451Z,14.16
2023-06-07T00:57:53.640Z,14.16
2023-06-07T00:58:53.447Z,14.15
2023-06-07T00:59:53.379Z,14.12
2023-06-07T01:00:53.557Z,14.11
2023-06-07T01:01:53.690Z,14.11
2023-06-07T01:02:53.590Z,14.08
2023-06-07T01:03:53.686Z,14.04
2023-06-07T01:04:53.374Z,14.03
2023-06-07T01:05:53.423Z,14.00
2023-06-07T01:06:53.340Z,13.97
2023-06-07T01:07:53.302Z,13.94
2023-06-07T01:08:53.260Z,13.95
2023-06-07T01:09:53.263Z,13.91
2023-06-07T01:10:53.571Z,13.87
2023-06-07T01:11:53.413Z,13.83
2023-06-07T01:12:53.257Z,13.83
2023-06-07T01:13:53.203Z,13.83
2023-06-07T01:14:53.278Z,13.79
2023-06-07T01:15:53.193Z,13.78
2023-06-07T01:16:53.270Z,13.76
2023-06-07T01:17:53.142Z,13.76
2023-06-07T01:18:53.270Z,13.75
2023-06-07T01:19:53.216Z,13.71
2023-06-07T01:20:53.112Z,13.68
2023-06-07T01:21:53.098Z,13.65
2023-06-07T01:22:53.207Z,13.64
2023-06-07T01:23:53.334Z,13.65
2023-06-07T01:24:53.126Z,13.65
2023-06-07T01:25:53.019Z,13.61
2023-06-07T01:26:53.013Z,13.61
2023-06-07T01:27:53.016Z,13.60
2023-06-07T01:28:53.005Z,13.60
2023-06-07T01:29:53.097Z,13.60
2023-06-07T01:30:53.166Z,13.62
2023-06-07T01:31:53.107Z,13.64
2023-06-07T01:32:53.038Z,13.62
2023-06-07T01:33:52.941Z,13.64
2023-06-07T01:34:52.995Z,13.67
2023-06-07T01:35:52.979Z,13.65
2023-06-07T01:36:53.167Z,13.68
2023-06-07T01:37:52.987Z,13.68
2023-06-07T01:38:52.881Z,13.70
2023-06-07T01:39:53.016Z,13.70
2023-06-07T01:40:52.840Z,13.75
2023-06-07T01:41:52.821Z,13.73
2023-06-07T01:42:53.048Z,13.76
2023-06-07T01:43:52.760Z,13.76
2023-06-07T01:44:52.921Z,13.78
2023-06-07T01:45:52.855Z,13.79
2023-06-07T01:46:52.810Z,13.83
2023-06-07T01:47:52.769Z,13.82
2023-06-07T01:48:52.838Z,13.85
2023-06-07T01:49:52.793Z,13.86
2023-06-07T01:50:52.697Z,13.91
2023-06-07T01:51:52.780Z,13.91
2023-06-07T01:52:52.866Z,13.95
2023-06-07T01:53:52.660Z,13.97
2023-06-07T01:54:52.790Z,13.98
2023-06-07T01:55:52.771Z,14.03
2023-06-07T01:56:52.829Z,14.05
2023-06-07T01:57:52.655Z,14.05
2023-06-07T01:58:52.580Z,14.07
2023-06-07T01:59:52.664Z,14.07
2023-06-07T02:00:52.601Z,14.11
2023-06-07T02:01:52.888Z,14.12
2023-06-07T02:02:52.614Z,14.11
2023-06-07T02:03:52.796Z,14.12
2023-06-07T02:04:52.595Z,14.13
2023-06-07T02:05:52.544Z,14.12
2023-06-07T02:06:52.474Z,14.12
2023-06-07T02:07:52.454Z,14.13
2023-06-07T02:08:52.624Z,14.13
2023-06-07T02:09:52.448Z,14.12
2023-06-07T02:10:52.586Z,14.15
2023-06-07T02:11:52.507Z,14.18
2023-06-07T02:12:52.528Z,14.18
2023-06-07T02:13:52.460Z,14.16
2023-06-07T02:14:52.382Z,14.18
2023-06-07T02:15:52.480Z,14.16
2023-06-07T02:16:52.615Z,14.19
2023-06-07T02:17:52.330Z,14.19
2023-06-07T02:18:52.373Z,14.20
2023-06-07T02:19:52.331Z,14.23
2023-06-07T02:20:52.390Z,14.23
2023-06-07T02:21:52.278Z,14.26
2023-06-07T02:22:52.520Z,14.26
2023-06-07T02:23:52.316Z,14.28
2023-06-07T02:24:52.299Z,14.30
2023-06-07T02:25:52.290Z,14.30
2023-06-07T02:26:52.237Z,14.31
2023-06-07T02:27:52.347Z,14.33
2023-06-07T02:28:52.177Z,14.36
2023-06-07T02:29:52.181Z,14.37
2023-06-07T02:30:52.276Z,14.40
2023-06-07T02:31:52.529Z,14.43
2023-06-07T02:32:52.251Z,14.43
2023-06-07T02:33:52.132Z,14.43
2023-06-07T02:34:52.091Z,14.40
2023-06-07T02:35:52.340Z,14.40
2023-06-07T02:36:52.293Z,14.38
2023-06-07T02:37:52.082Z,14.38
2023-06-07T02:38:52.042Z,14.40
2023-06-07T02:39:52.034Z,14.38
2023-06-07T02:40:52.316Z,14.40
2023-06-07T02:41:52.128Z,14.41
2023-06-07T02:42:52.199Z,14.43
2023-06-07T02:43:51.958Z,14.43
2023-06-07T02:44:51.978Z,14.41
2023-06-07T02:45:52.894Z,14.44
2023-06-07T02:46:51.957Z,14.45
2023-06-07T02:47:52.195Z,14.48
2023-06-07T02:48:51.913Z,14.45
2023-06-07T02:49:52.171Z,14.45
2023-06-07T02:50:51.967Z,14.48
2023-06-07T02:51:51.904Z,14.45
2023-06-07T02:52:51.862Z,14.51
2023-06-07T02:53:52.014Z,14.52
2023-06-07T02:54:51.866Z,14.53
2023-06-07T02:55:52.142Z,14.55
2023-06-07T02:56:51.978Z,14.55
2023-06-07T02:57:51.804Z,14.53
2023-06-07T02:58:51.894Z,14.55
2023-06-07T02:59:51.747Z,14.56
2023-06-07T03:00:51.995Z,14.58
2023-06-07T03:01:51.708Z,14.59
2023-06-07T03:02:51.802Z,14.59
2023-06-07T03:03:51.807Z,14.59
2023-06-07T03:04:51.682Z,14.62
2023-06-07T03:05:51.794Z,14.63
2023-06-07T03:06:51.649Z,14.63
2023-06-07T03:07:51.765Z,14.66
2023-06-07T03:08:51.679Z,14.67
2023-06-07T03:09:51.808Z,14.67
2023-06-07T03:10:51.708Z,14.63
2023-06-07T03:11:51.680Z,14.63
2023-06-07T03:12:51.561Z,14.63
2023-06-07T03:13:51.548Z,14.66
2023-06-07T03:14:51.544Z,14.66
2023-06-07T03:15:51.822Z,14.66
2023-06-07T03:16:51.749Z,14.66
2023-06-07T03:17:51.529Z,14.67
2023-06-07T03:18:51.670Z,14.66
2023-06-07T03:19:51.458Z,14.66
2023-06-07T03:20:51.654Z,14.67
2023-06-07T03:21:51.498Z,14.66
2023-06-07T03:22:51.558Z,14.66
2023-06-07T03:23:51.495Z,14.66
2023-06-07T03:24:51.409Z,14.63
2023-06-07T03:25:51.512Z,14.67
2023-06-07T03:26:51.389Z,14.63
2023-06-07T03:27:51.360Z,14.66
2023-06-07T03:28:51.330Z,14.66
2023-06-07T03:29:51.412Z,14.66
2023-06-07T03:30:51.459Z,14.68
2023-06-07T03:31:51.468Z,14.68
2023-06-07T03:32:51.381Z,14.68
2023-06-07T03:33:51.518Z,14.70
2023-06-07T03:34:51.566Z,14.68
2023-06-07T03:35:51.507Z,14.68
2023-06-07T03:36:51.232Z,14.67
2023-06-07T03:37:51.400Z,14.67
2023-06-07T03:38:51.253Z,14.67
2023-06-07T03:39:51.464Z,14.67
2023-06-07T03:40:51.726Z,14.68
2023-06-07T03:41:51.473Z,14.68
2023-06-07T03:42:51.244Z,14.71
2023-06-07T03:43:51.173Z,14.71
2023-06-07T03:44:51.239Z,14.73
2023-06-07T03:45:51.246Z,14.71
2023-06-07T03:46:51.224Z,14.73
2023-06-07T03:47:51.340Z,14.74
2023-06-07T03:48:52.971Z,14.77
2023-06-07T03:49:51.138Z,14.78
2023-06-07T03:50:51.236Z,14.81
2023-06-07T03:51:51.089Z,14.79
2023-06-07T03:52:51.291Z,14.82
2023-06-07T03:53:51.190Z,14.79
2023-06-07T03:54:51.207Z,14.81
2023-06-07T03:55:50.995Z,14.85
2023-06-07T03:56:51.004Z,14.81
2023-06-07T03:57:51.093Z,14.82
2023-06-07T03:58:50.967Z,14.81
2023-06-07T03:59:51.244Z,14.85
2023-06-07T04:00:50.944Z,14.85
2023-06-07T04:01:51.094Z,14.86
2023-06-07T04:02:51.000Z,14.87
2023-06-07T04:03:51.123Z,14.87
2023-06-07T04:04:50.993Z,14.90
2023-06-07T04:05:50.913Z,14.92
2023-06-07T04:06:51.114Z,14.90
2023-06-07T04:07:50.807Z,14.94
2023-06-07T04:08:51.029Z,14.93
2023-06-07T04:09:50.812Z,14.93
2023-06-07T04:10:50.933Z,14.94
2023-06-07T04:11:50.899Z,14.94
2023-06-07T04:12:51.033Z,14.99
2023-06-07T04:13:50.838Z,14.97
2023-06-07T04:14:50.903Z,15.00
2023-06-07T04:15:50.800Z,15.02
2023-06-07T04:16:51.092Z,15.05
2023-06-07T04:17:50.987Z,15.07
2023-06-07T04:18:50.698Z,15.08
2023-06-07T04:19:51.653Z,15.11
2023-06-07T04:20:50.653Z,15.12
2023-06-07T04:21:50.877Z,15.14
2023-06-07T04:22:50.929Z,15.12
2023-06-07T04:23:50.859Z,15.11
2023-06-07T04:24:50.645Z,15.14
2023-06-07T04:25:50.781Z,15.14
2023-06-07T04:26:50.766Z,15.10
2023-06-07T04:27:50.544Z,15.11
2023-06-07T04:28:50.736Z,15.12
2023-06-07T04:29:50.604Z,15.14
2023-06-07T04:30:50.494Z,15.17
2023-06-07T04:31:50.728Z,15.22
2023-06-07T04:32:50.658Z,15.23
2023-06-07T04:33:50.851Z,15.25
2023-06-07T04:34:50.599Z,15.26
2023-06-07T04:35:50.430Z,15.26
2023-06-07T04:36:50.683Z,15.29
2023-06-07T04:37:50.440Z,15.29
2023-06-07T04:39:50.605Z,15.30
2023-06-07T04:40:50.686Z,15.33
2023-06-07T04:41:50.629Z,15.36
2023-06-07T04:42:50.353Z,15.37
2023-06-07T04:43:50.356Z,15.39
2023-06-07T04:44:50.340Z,15.41
2023-06-07T04:45:50.425Z,15.43
2023-06-07T04:46:50.399Z,15.44
2023-06-07T04:47:50.577Z,15.45
2023-06-07T04:48:50.332Z,15.48
2023-06-07T04:49:50.300Z,15.51
2023-06-07T04:50:50.258Z,15.52
2023-06-07T04:51:50.330Z,15.55
2023-06-07T04:52:50.374Z,15.54
2023-06-07T04:53:50.242Z,15.57
2023-06-07T04:54:50.188Z,15.60
2023-06-07T04:55:50.174Z,15.62
2023-06-07T04:56:50.443Z,15.66
2023-06-07T04:57:50.140Z,15.70
2023-06-07T04:58:50.268Z,15.72
2023-06-07T04:59:50.177Z,15.78
2023-06-07T05:00:50.297Z,15.83
2023-06-07T05:01:50.318Z,15.84
2023-06-07T05:02:50.161Z,15.87
2023-06-07T05:03:50.123Z,15.91
2023-06-07T05:04:50.044Z,15.90
2023-06-07T05:05:50.158Z,15.88
2023-06-07T05:06:50.424Z,15.87
2023-06-07T05:07:50.046Z,15.88
2023-06-07T05:08:50.051Z,15.90
2023-06-07T05:09:50.256Z,15.87
2023-06-07T05:10:50.068Z,15.88
2023-06-07T05:11:50.059Z,15.90
2023-06-07T05:12:49.969Z,15.94
2023-06-07T05:13:50.136Z,15.98
2023-06-07T05:14:49.980Z,16.00
2023-06-07T05:15:50.061Z,16.05
2023-06-07T05:16:49.975Z,16.08
2023-06-07T05:17:50.012Z,16.09
2023-06-07T05:18:50.083Z,16.08
2023-06-07T05:19:49.933Z,16.09
2023-06-07T05:20:50.200Z,16.13
2023-06-07T05:21:49.964Z,16.17
2023-06-07T05:22:49.979Z,16.18
2023-06-07T05:23:49.911Z,16.25
2023-06-07T05:24:49.870Z,16.28
2023-06-07T05:25:49.797Z,16.28
2023-06-07T05:26:49.867Z,16.28
2023-06-07T05:27:59.962Z,16.29
2023-06-07T05:28:49.956Z,16.31
2023-06-07T05:29:49.915Z,16.32
2023-06-07T05:30:49.690Z,16.34
2023-06-07T05:31:50.051Z,16.34
2023-06-07T05:32:50.127Z,16.34
2023-06-07T05:33:49.668Z,16.32
2023-06-07T05:34:49.749Z,16.34
2023-06-07T05:35:49.818Z,16.32
2023-06-07T05:36:49.734Z,16.32
2023-06-07T05:37:49.604Z,16.32
2023-06-07T05:38:49.626Z,16.36
2023-06-07T05:39:49.799Z,16.39
2023-06-07T05:40:49.768Z,16.39
2023-06-07T05:41:49.768Z,16.40
2023-06-07T05:42:49.743Z,16.41
2023-06-07T05:43:50.468Z,16.44
2023-06-07T05:44:49.729Z,16.47
2023-06-07T05:45:49.502Z,16.50
2023-06-07T05:46:49.628Z,16.54
2023-06-07T05:47:49.612Z,16.51
2023-06-07T05:48:49.480Z,16.57
2023-06-07T05:49:49.462Z,16.59
2023-06-07T05:50:49.753Z,16.59
2023-06-07T05:51:49.586Z,16.62
2023-06-07T05:52:49.631Z,16.66
2023-06-07T05:53:49.488Z,16.68
2023-06-07T05:54:49.631Z,16.73
2023-06-07T05:55:49.606Z,16.76
2023-06-07T05:56:49.394Z,16.79
2023-06-07T05:57:49.557Z,16.77
2023-06-07T05:58:49.625Z,16.77
2023-06-07T05:59:49.411Z,16.77
2023-06-07T06:00:49.330Z,16.76
2023-06-07T06:01:49.352Z,16.79
2023-06-07T06:02:49.660Z,16.83
2023-06-07T06:03:49.510Z,16.84
2023-06-07T06:04:49.971Z,16.89
2023-06-07T06:05:49.468Z,16.89
2023-06-07T06:06:49.413Z,16.86
2023-06-07T06:07:49.296Z,16.87
2023-06-07T06:08:49.329Z,16.89
2023-06-07T06:09:49.251Z,16.95
2023-06-07T06:10:49.153Z,17.02
2023-06-07T06:11:49.138Z,17.09
2023-06-07T06:12:49.223Z,17.17
2023-06-07T06:13:49.265Z,17.22
2023-06-07T06:14:49.110Z,17.24
2023-06-07T06:15:49.290Z,17.28
2023-06-07T06:16:49.112Z,17.34
2023-06-07T06:17:49.307Z,17.38
2023-06-07T06:18:49.992Z,17.41
2023-06-07T06:19:49.039Z,17.44
2023-06-07T06:20:49.050Z,17.53
2023-06-07T06:21:49.016Z,17.57
2023-06-07T06:22:49.112Z,17.63
2023-06-07T06:23:50.069Z,17.60
2023-06-07T06:24:48.992Z,17.57
2023-06-07T06:25:48.981Z,17.52
2023-06-07T06:26:49.023Z,17.54
2023-06-07T06:27:49.471Z,17.54
2023-06-07T06:28:49.084Z,17.57
2023-06-07T06:29:49.141Z,17.65
2023-06-07T06:30:49.055Z,17.68
2023-06-07T06:31:50.044Z,17.65
2023-06-07T06:32:51.063Z,17.68
2023-06-07T06:33:48.954Z,17.73
2023-06-07T06:34:48.879Z,17.79
2023-06-07T06:35:48.865Z,17.86
2023-06-07T06:36:49.306Z,17.88
2023-06-07T06:37:49.724Z,17.93
2023-06-07T06:38:49.200Z,17.98
2023-06-07T06:39:48.837Z,17.97
2023-06-07T06:40:49.282Z,17.98
2023-06-07T06:41:48.856Z,18.03
2023-06-07T06:42:49.131Z,18.08
2023-06-07T06:43:48.859Z,18.11
2023-06-07T06:44:48.736Z,18.15
2023-06-07T06:45:48.930Z,18.18
2023-06-07T06:46:48.695Z,18.23
2023-06-07T06:47:49.011Z,18.26
2023-06-07T06:49:02.811Z,18.26
2023-06-07T06:49:48.712Z,18.33
2023-06-07T06:50:48.648Z,18.41
2023-06-07T06:51:49.186Z,18.48
2023-06-07T06:52:48.921Z,18.52
2023-06-07T06:53:48.914Z,18.63
2023-06-07T06:54:48.769Z,18.70
2023-06-07T06:55:48.568Z,18.76
2023-06-07T06:56:48.700Z,18.78
2023-06-07T06:57:49.170Z,18.81
2023-06-07T06:58:48.650Z,18.85
2023-06-07T06:59:50.290Z,18.91
2023-06-07T07:00:48.720Z,19.04
2023-06-07T07:01:48.607Z,19.11
2023-06-07T07:02:48.909Z,19.20
2023-06-07T07:03:49.777Z,19.32
2023-06-07T07:04:48.548Z,19.44
2023-06-07T07:05:48.429Z,19.49
2023-06-07T07:06:48.372Z,19.60
2023-06-07T07:07:48.598Z,19.66
2023-06-07T07:08:48.495Z,19.60
2023-06-07T07:09:48.624Z,19.77
2023-06-07T07:10:48.393Z,19.94
2023-06-07T07:11:48.525Z,20.10
2023-06-07T07:12:48.504Z,20.21
2023-06-07T07:13:48.537Z,20.34
2023-06-07T07:14:48.378Z,20.42
2023-06-07T07:15:48.324Z,20.44
2023-06-07T07:16:48.383Z,20.36
2023-06-07T07:17:48.413Z,20.37
2023-06-07T07:18:48.250Z,20.29
2023-06-07T07:19:48.257Z,20.27
2023-06-07T07:20:48.230Z,20.18
2023-06-07T07:21:48.233Z,20.19
2023-06-07T07:22:48.320Z,20.22
2023-06-07T07:23:48.286Z,20.18
2023-06-07T07:24:48.395Z,20.22
2023-06-07T07:25:48.195Z,20.32
2023-06-07T07:26:48.347Z,20.32
2023-06-07T07:27:48.312Z,20.37
2023-06-07T07:28:48.394Z,20.39
2023-06-07T07:29:48.206Z,20.44
2023-06-07T07:30:48.409Z,20.52
2023-06-07T07:31:48.212Z,20.58
2023-06-07T07:32:48.171Z,20.63
2023-06-07T07:33:48.037Z,20.68
2023-06-07T07:34:48.076Z,20.75
2023-06-07T07:35:48.199Z,20.82
2023-06-07T07:36:48.045Z,20.88
2023-06-07T07:37:48.322Z,20.88
2023-06-07T07:38:48.174Z,20.92
2023-06-07T07:39:48.039Z,20.93
2023-06-07T07:40:48.027Z,21.01
2023-06-07T07:41:47.990Z,21.07
2023-06-07T07:42:48.133Z,21.15
2023-06-07T07:43:47.910Z,21.22
2023-06-07T07:44:48.040Z,21.32
2023-06-07T07:45:47.904Z,21.44
2023-06-07T07:46:47.836Z,21.56
2023-06-07T07:47:48.097Z,21.69
2023-06-07T07:48:48.061Z,21.78
2023-06-07T07:49:47.956Z,21.94
2023-06-07T07:50:47.838Z,21.99
2023-06-07T07:51:47.880Z,21.92
2023-06-07T07:52:47.793Z,21.85
2023-06-07T07:53:48.040Z,21.97
2023-06-07T07:54:47.837Z,21.96
2023-06-07T07:55:47.758Z,21.92
2023-06-07T07:56:47.738Z,21.92
2023-06-07T07:57:47.736Z,22.03
2023-06-07T07:58:47.990Z,22.14
2023-06-07T07:59:47.750Z,22.34
2023-06-07T08:00:47.739Z,22.28
2023-06-07T08:01:47.952Z,22.25
2023-06-07T08:02:47.707Z,22.36
2023-06-07T08:03:48.314Z,22.34
2023-06-07T08:04:47.825Z,22.41
2023-06-07T08:05:47.889Z,22.44
2023-06-07T08:06:47.733Z,22.51
2023-06-07T08:07:47.983Z,22.59
2023-06-07T08:08:47.684Z,22.71
2023-06-07T08:09:47.668Z,22.80
2023-06-07T08:10:47.514Z,22.91
2023-06-07T08:11:47.595Z,22.99
2023-06-07T08:12:47.736Z,22.78
2023-06-07T08:13:47.704Z,22.67
2023-06-07T08:14:47.830Z,22.71
2023-06-07T08:15:47.650Z,22.76
2023-06-07T08:16:47.797Z,22.92
2023-06-07T08:17:49.371Z,23.17
2023-06-07T08:18:47.688Z,23.34
2023-06-07T08:19:47.539Z,23.37
2023-06-07T08:20:47.451Z,23.28
2023-06-07T08:21:47.394Z,23.21
2023-06-07T08:22:47.391Z,23.11
2023-06-07T08:23:47.726Z,23.13
2023-06-07T08:24:47.650Z,23.28
2023-06-07T08:25:47.693Z,23.51
2023-06-07T08:26:47.517Z,23.62
2023-06-07T08:27:47.295Z,23.51
2023-06-07T08:28:47.516Z,23.23
2023-06-07T08:29:47.445Z,23.21
2023-06-07T08:30:47.395Z,23.28
2023-06-07T08:31:47.399Z,23.44
2023-06-07T08:32:47.591Z,23.56
2023-06-07T08:33:47.427Z,23.58
2023-06-07T08:34:47.193Z,23.55
2023-06-07T08:35:47.258Z,23.56
2023-06-07T08:36:47.448Z,23.52
2023-06-07T08:37:47.309Z,23.48
2023-06-07T08:38:47.269Z,23.39
2023-06-07T08:39:47.349Z,23.14
2023-06-07T08:40:47.199Z,23.10
2023-06-07T08:41:47.136Z,23.08
2023-06-07T08:42:47.192Z,22.98
2023-06-07T08:43:47.443Z,23.02
2023-06-07T08:44:47.123Z,22.98
2023-06-07T08:45:47.103Z,23.06
2023-06-07T08:46:47.127Z,23.08
2023-06-07T08:47:47.148Z,23.06
2023-06-07T08:48:47.203Z,22.95
2023-06-07T08:49:47.039Z,22.93
2023-06-07T08:50:48.090Z,23.04
2023-06-07T08:51:47.473Z,23.10
2023-06-07T08:52:47.120Z,23.25
2023-06-07T08:53:47.094Z,23.39
2023-06-07T08:54:47.135Z,23.37
2023-06-07T08:55:47.256Z,23.42
2023-06-07T08:56:47.281Z,23.47
2023-06-07T08:57:46.975Z,23.59
2023-06-07T08:58:47.118Z,23.81
2023-06-07T08:59:46.887Z,23.74
2023-06-07T09:00:46.936Z,23.85
2023-06-07T09:01:46.969Z,23.94
2023-06-07T09:02:46.901Z,23.89
2023-06-07T09:03:47.133Z,23.81
2023-06-07T09:04:46.903Z,23.52
2023-06-07T09:05:46.944Z,23.48
2023-06-07T09:06:47.078Z,23.62
2023-06-07T09:07:46.814Z,23.59
2023-06-07T09:08:46.892Z,23.62
2023-06-07T09:09:47.019Z,23.63
2023-06-07T09:10:46.788Z,23.66
2023-06-07T09:11:46.805Z,23.58
2023-06-07T09:12:46.803Z,23.63
2023-06-07T09:13:46.802Z,23.85
2023-06-07T09:14:46.773Z,24.11
2023-06-07T09:15:46.700Z,24.24
2023-06-07T09:16:46.792Z,24.44
2023-06-07T09:17:46.880Z,24.58
2023-06-07T09:18:46.894Z,24.74
2023-06-07T09:19:46.632Z,24.82
2023-06-07T09:20:46.714Z,24.92
2023-06-07T09:21:46.676Z,25.11
2023-06-07T09:22:46.717Z,25.56
2023-06-07T09:23:46.679Z,26.34
2023-06-07T09:24:46.657Z,25.88
2023-06-07T09:25:46.594Z,25.21
2023-06-07T09:26:46.874Z,24.97
2023-06-07T09:27:46.639Z,24.63
2023-06-07T09:28:46.547Z,24.51
2023-06-07T09:29:46.690Z,24.68
2023-06-07T09:30:46.867Z,24.81
2023-06-07T09:31:46.570Z,24.84
2023-06-07T09:32:46.480Z,24.78
2023-06-07T09:33:46.572Z,25.14
2023-06-07T09:34:47.882Z,25.63
2023-06-07T09:35:46.615Z,26.86
2023-06-07T09:36:46.548Z,27.95
2023-06-07T09:37:46.654Z,28.31
2023-06-07T09:38:46.536Z,28.59
2023-06-07T09:39:46.479Z,29.64
2023-06-07T09:40:46.448Z,29.50
2023-06-07T09:41:46.317Z,28.37
2023-06-07T09:42:46.637Z,27.72
2023-06-07T09:43:46.593Z,27.60
2023-06-07T09:44:46.787Z,27.43
2023-06-07T09:45:46.360Z,27.25
2023-06-07T09:46:46.534Z,26.83
2023-06-07T09:47:46.371Z,26.79
2023-06-07T09:48:46.664Z,26.78
2023-06-07T09:49:46.420Z,26.56
2023-06-07T09:50:46.540Z,26.49
2023-06-07T09:51:46.290Z,26.37
2023-06-07T09:52:46.493Z,26.10
2023-06-07T09:53:46.427Z,26.27
2023-06-07T09:54:46.309Z,26.48
2023-06-07T09:55:46.215Z,26.67
2023-06-07T09:56:46.167Z,27.04
2023-06-07T09:57:46.287Z,27.05
2023-06-07T09:58:46.110Z,27.11
2023-06-07T09:59:46.213Z,27.22
2023-06-07T10:00:46.334Z,28.09
2023-06-07T10:01:47.258Z,28.94
2023-06-07T10:02:46.194Z,29.47
2023-06-07T10:03:46.052Z,29.46
2023-06-07T10:04:46.241Z,29.53
2023-06-07T10:05:46.325Z,29.34
2023-06-07T10:06:46.238Z,29.61
2023-06-07T10:07:46.002Z,30.10
2023-06-07T10:10:12.178Z,30.32
2023-06-07T10:10:18.460Z,30.69
2023-06-07T10:11:18.461Z,30.78
2023-06-07T10:12:18.385Z,30.17
2023-06-07T10:13:18.502Z,29.98
2023-06-07T10:14:18.376Z,30.20
2023-06-07T10:15:18.570Z,30.29
2023-06-07T10:16:18.490Z,30.40
2023-06-07T10:17:19.510Z,30.43
2023-06-07T10:18:18.298Z,30.67
2023-06-07T10:19:18.415Z,30.58
2023-06-07T10:20:18.331Z,30.43
2023-06-07T10:21:18.239Z,30.65
2023-06-07T10:22:18.351Z,30.40
2023-06-07T10:23:18.500Z,30.02
2023-06-07T10:24:18.305Z,30.10
2023-06-07T10:25:18.302Z,30.27
2023-06-07T10:26:18.166Z,30.52
2023-06-07T10:27:18.159Z,30.36
2023-06-07T10:28:18.090Z,30.76
2023-06-07T10:29:21.342Z,31.28
2023-06-07T10:30:18.159Z,31.15
2023-06-07T10:31:18.256Z,30.76
2023-06-07T10:32:18.138Z,30.31
2023-06-07T10:33:18.039Z,30.63
2023-06-07T10:34:18.049Z,30.83
2023-06-07T10:35:18.235Z,30.67
2023-06-07T10:36:18.155Z,30.43
2023-06-07T10:37:18.497Z,30.01
2023-06-07T10:38:18.039Z,29.86
2023-06-07T10:39:17.952Z,30.35
2023-06-07T10:40:18.671Z,30.78
2023-06-07T10:41:18.781Z,31.22
2023-06-07T10:42:17.989Z,31.44
2023-06-07T10:43:18.309Z,31.48
2023-06-07T10:44:18.631Z,30.86
2023-06-07T10:45:18.222Z,30.20
2023-06-07T10:46:18.095Z,30.24
2023-06-07T10:47:17.953Z,30.70
2023-06-07T10:48:18.283Z,31.42
2023-06-07T10:49:17.800Z,30.92
2023-06-07T10:50:18.163Z,30.46
2023-06-07T10:51:17.946Z,29.53
2023-06-07T10:52:17.962Z,30.13
2023-06-07T10:53:18.010Z,30.80
2023-06-07T10:54:17.825Z,30.23
2023-06-07T10:55:17.793Z,29.20
2023-06-07T10:56:18.136Z,28.20
2023-06-07T10:57:17.895Z,27.78
2023-06-07T10:58:18.133Z,28.22
2023-06-07T10:59:18.220Z,27.61
2023-06-07T11:00:17.781Z,27.23
2023-06-07T11:01:17.988Z,27.05
2023-06-07T11:02:17.831Z,27.63
2023-06-07T11:03:17.970Z,28.72
2023-06-07T11:04:17.906Z,28.50
2023-06-07T11:05:17.745Z,28.08
2023-06-07T11:06:17.774Z,27.64
2023-06-07T11:07:17.977Z,27.30
2023-06-07T11:08:17.657Z,27.03
2023-06-07T11:09:17.833Z,26.82
2023-06-07T11:10:17.725Z,26.59
2023-06-07T11:11:17.606Z,26.15
2023-06-07T11:12:17.704Z,26.08
2023-06-07T11:13:17.546Z,26.10
2023-06-07T11:14:17.496Z,26.15
2023-06-07T11:15:17.517Z,26.19
2023-06-07T11:16:17.847Z,26.22
2023-06-07T11:17:17.504Z,26.29
2023-06-07T11:18:17.540Z,26.34
2023-06-07T11:19:17.480Z,26.41
2023-06-07T11:20:17.564Z,26.48
2023-06-07T11:21:17.429Z,26.46
2023-06-07T11:22:17.567Z,26.51
2023-06-07T11:23:17.489Z,26.52
2023-06-07T11:24:17.396Z,26.45
2023-06-07T11:25:17.630Z,26.49
2023-06-07T11:26:17.453Z,26.41
2023-06-07T11:27:17.583Z,26.48
2023-06-07T11:28:17.500Z,26.66
2023-06-07T11:29:17.578Z,26.79
2023-06-07T11:30:17.327Z,26.83
2023-06-07T11:31:17.359Z,26.86
2023-06-07T11:32:17.535Z,26.86
2023-06-07T11:33:17.399Z,26.78
2023-06-07T11:34:17.311Z,26.63
2023-06-07T11:35:17.459Z,26.68
2023-06-07T11:36:19.661Z,26.88
2023-06-07T11:37:17.362Z,26.93
2023-06-07T11:38:17.221Z,26.91
2023-06-07T11:39:17.165Z,26.86
2023-06-07T11:40:17.166Z,26.85
2023-06-07T11:41:17.162Z,26.83
2023-06-07T11:42:17.252Z,26.71
2023-06-07T11:43:17.208Z,26.76
2023-06-07T11:44:17.368Z,26.59
2023-06-07T11:45:17.333Z,26.81
2023-06-07T11:46:17.086Z,27.03
2023-06-07T11:47:17.759Z,27.48
2023-06-07T11:48:17.169Z,27.95
2023-06-07T11:49:17.174Z,28.22
2023-06-07T11:50:17.027Z,28.35
2023-06-07T11:51:17.101Z,28.56
2023-06-07T11:52:17.008Z,28.65
2023-06-07T11:53:17.137Z,28.59
2023-06-07T11:54:17.003Z,28.62
2023-06-07T11:55:16.948Z,28.70
2023-06-07T11:56:17.090Z,28.72
2023-06-07T11:57:16.949Z,28.70
2023-06-07T11:58:17.081Z,28.57
2023-06-07T11:59:16.894Z,28.34
2023-06-07T12:00:17.047Z,28.46
2023-06-07T12:01:16.890Z,28.43
2023-06-07T12:02:17.003Z,28.50
2023-06-07T12:03:17.132Z,28.50
2023-06-07T12:04:17.028Z,28.35
2023-06-07T12:05:16.875Z,28.18
2023-06-07T12:06:16.978Z,27.93
2023-06-07T12:07:17.011Z,27.72
2023-06-07T12:08:16.861Z,27.73
2023-06-07T12:09:19.300Z,27.78
2023-06-07T12:10:16.832Z,27.53
2023-06-07T12:11:16.757Z,27.01
2023-06-07T12:12:16.849Z,26.78
2023-06-07T12:13:16.886Z,26.67
2023-06-07T12:14:16.767Z,26.85
2023-06-07T12:15:16.854Z,26.61
2023-06-07T12:16:16.746Z,26.34
2023-06-07T12:17:16.938Z,26.33
2023-06-07T12:18:16.746Z,26.30
2023-06-07T12:19:16.720Z,26.19
2023-06-07T12:20:17.055Z,26.33
2023-06-07T12:21:16.691Z,26.31
2023-06-07T12:22:16.768Z,26.29
2023-06-07T12:23:16.605Z,26.16
2023-06-07T12:24:16.780Z,26.24
2023-06-07T12:25:16.903Z,26.53
2023-06-07T12:26:16.705Z,26.64
2023-06-07T12:27:16.946Z,26.51
2023-06-07T12:28:16.533Z,26.34
2023-06-07T12:29:16.505Z,26.01
2023-06-07T12:30:16.524Z,25.83
2023-06-07T12:31:16.686Z,25.68
2023-06-07T12:32:17.101Z,25.48
2023-06-07T12:33:16.674Z,25.16
2023-06-07T12:34:16.466Z,25.01
2023-06-07T12:35:17.084Z,24.89
2023-06-07T12:36:16.502Z,24.75
2023-06-07T12:37:16.510Z,24.65
2023-06-07T12:38:16.533Z,24.53
2023-06-07T12:39:16.516Z,24.40
2023-06-07T12:40:16.416Z,24.18
2023-06-07T12:41:16.388Z,23.96
2023-06-07T12:42:16.456Z,23.86
2023-06-07T12:43:16.519Z,23.74
2023-06-07T12:44:16.422Z,23.66
2023-06-07T12:45:16.627Z,23.58
2023-06-07T12:46:16.434Z,23.51
2023-06-07T12:47:16.509Z,23.47
2023-06-07T12:48:16.564Z,23.45
2023-06-07T12:49:16.313Z,23.40
2023-06-07T12:50:16.417Z,23.45
2023-06-07T12:51:16.258Z,23.59
2023-06-07T12:52:16.479Z,23.88
2023-06-07T12:53:16.343Z,24.11
2023-06-07T12:54:16.259Z,24.26